createdAt,value
2017-10-22T00:01:59.944Z,1003.93
2017-10-22T00:06:55.742Z,1003.89
2017-10-22T00:11:53.912Z,1003.92
2017-10-22T00:16:50.373Z,1003.84
2017-10-22T00:21:46.791Z,1003.88
2017-10-22T00:26:42.248Z,1003.85
2017-10-22T00:31:40.013Z,1003.82
2017-10-22T00:36:37.177Z,1003.80
2017-10-22T00:41:33.777Z,1003.77
2017-10-22T00:46:32.019Z,1003.65
2017-10-22T00:51:28.425Z,1003.59
2017-10-22T00:56:25.132Z,1003.69
2017-10-22T01:01:21.298Z,1003.67
2017-10-22T01:06:18.183Z,1003.56
2017-10-22T01:11:13.499Z,1003.61
2017-10-22T01:16:09.151Z,1003.37
2017-10-22T01:21:05.101Z,1003.49
2017-10-22T01:26:02.424Z,1003.48
2017-10-22T01:30:57.817Z,1003.53
2017-10-22T01:35:54.790Z,1003.40
2017-10-22T01:40:50.523Z,1003.44
2017-10-22T01:45:47.260Z,1003.31
2017-10-22T01:50:44.244Z,1003.27
2017-10-22T01:55:41.744Z,1003.20
2017-10-22T02:00:42.025Z,1003.12
2017-10-22T02:05:38.905Z,1003.07
2017-10-22T02:10:35.075Z,1003.03
2017-10-22T02:15:32.171Z,1003.08
2017-10-22T02:20:28.733Z,1002.98
2017-10-22T02:25:25.167Z,1003.04
2017-10-22T02:30:20.490Z,1003.00
2017-10-22T02:35:18.050Z,1003.03
2017-10-22T02:40:14.273Z,1002.97
2017-10-22T02:45:11.756Z,1003.00
2017-10-22T02:50:08.327Z,1002.99
2017-10-22T02:55:04.033Z,1002.90
2017-10-22T03:00:00.823Z,1003.03
2017-10-22T03:04:56.615Z,1002.92
2017-10-22T03:09:54.063Z,1002.92
2017-10-22T03:14:51.555Z,1002.80
2017-10-22T03:19:46.775Z,1002.63
2017-10-22T03:24:42.978Z,1002.72
2017-10-22T03:29:39.607Z,1002.74
2017-10-22T03:34:37.680Z,1002.65
2017-10-22T03:39:33.978Z,1002.62
2017-10-22T03:44:30.031Z,1002.59
2017-10-22T03:49:25.657Z,1002.54
2017-10-22T03:54:22.170Z,1002.61
2017-10-22T03:59:18.008Z,1002.68
2017-10-22T04:04:15.090Z,1002.53
2017-10-22T04:09:10.664Z,1002.64
2017-10-22T04:14:06.485Z,1002.65
2017-10-22T04:19:02.379Z,1002.56
2017-10-22T04:23:58.258Z,1002.53
2017-10-22T04:28:54.167Z,1002.64
2017-10-22T04:33:49.826Z,1002.56
2017-10-22T04:38:46.682Z,1002.37
2017-10-22T04:43:43.164Z,1002.36
2017-10-22T04:48:39.918Z,1002.32
2017-10-22T04:53:35.300Z,1002.36
2017-10-22T04:58:31.066Z,1002.29
2017-10-22T05:03:27.435Z,1002.26
2017-10-22T05:08:23.254Z,1002.30
2017-10-22T05:13:20.145Z,1002.25
2017-10-22T05:18:17.526Z,1002.28
2017-10-22T05:23:13.484Z,1002.33
2017-10-22T05:28:10.766Z,1002.30
2017-10-22T05:33:06.327Z,1002.27
2017-10-22T05:38:02.049Z,1002.25
2017-10-22T05:42:57.538Z,1002.19
2017-10-22T05:47:54.069Z,1002.10
2017-10-22T05:52:50.564Z,1002.02
2017-10-22T05:57:45.987Z,1001.84
2017-10-22T06:02:42.192Z,1001.86
2017-10-22T06:07:39.809Z,1001.96
2017-10-22T06:12:36.169Z,1001.90
2017-10-22T06:17:33.551Z,1001.89
2017-10-22T06:22:29.078Z,1001.97
2017-10-22T06:27:25.968Z,1001.91
2017-10-22T06:32:21.330Z,1002.00
2017-10-22T06:37:18.256Z,1002.05
2017-10-22T06:42:14.431Z,1002.07
2017-10-22T06:47:11.454Z,1002.08
2017-10-22T06:52:08.009Z,1002.06
2017-10-22T06:57:03.392Z,1002.19
2017-10-22T07:02:00.180Z,1002.15
2017-10-22T07:06:56.067Z,1002.22
2017-10-22T07:11:51.680Z,1002.15
2017-10-22T07:16:48.554Z,1002.24
2017-10-22T07:21:44.302Z,1002.14
2017-10-22T07:26:41.197Z,1002.25
2017-10-22T07:31:36.741Z,1002.26
2017-10-22T07:36:32.857Z,1002.19
2017-10-22T07:41:29.511Z,1002.25
2017-10-22T07:46:25.980Z,1002.28
2017-10-22T07:51:21.547Z,1002.34
2017-10-22T07:56:17.366Z,1002.41
2017-10-22T08:01:13.314Z,1002.40
2017-10-22T08:06:09.451Z,1002.47
2017-10-22T08:11:05.322Z,1002.41
2017-10-22T08:16:01.228Z,1002.44
2017-10-22T08:20:57.042Z,1002.42
2017-10-22T08:25:52.521Z,1002.55
2017-10-22T08:30:49.274Z,1002.48
2017-10-22T08:35:45.375Z,1002.49
2017-10-22T08:40:42.546Z,1002.63
2017-10-22T08:45:37.941Z,1002.57
2017-10-22T08:50:33.899Z,1002.58
2017-10-22T08:55:29.967Z,1002.63
2017-10-22T09:00:25.753Z,1002.69
2017-10-22T09:05:22.719Z,1002.77
2017-10-22T09:10:18.200Z,1002.81
2017-10-22T09:15:15.130Z,1002.79
2017-10-22T09:20:12.623Z,1002.89
2017-10-22T09:25:07.911Z,1002.94
2017-10-22T09:30:04.578Z,1002.93
2017-10-22T09:35:01.515Z,1002.90
2017-10-22T09:39:56.809Z,1003.00
2017-10-22T09:44:53.045Z,1002.91
2017-10-22T09:49:49.862Z,1002.97
2017-10-22T09:54:45.340Z,1003.06
2017-10-22T09:59:42.162Z,1002.92
2017-10-22T10:04:37.743Z,1003.01
2017-10-22T10:09:33.598Z,1003.09
2017-10-22T10:14:29.374Z,1003.08
2017-10-22T10:19:25.142Z,1003.08
2017-10-22T10:24:21.869Z,1003.07
2017-10-22T10:29:17.524Z,1003.18
2017-10-22T10:34:13.387Z,1003.21
2017-10-22T10:39:09.631Z,1003.17
2017-10-22T10:44:05.410Z,1003.18
2017-10-22T10:49:01.265Z,1003.19
2017-10-22T10:53:57.997Z,1003.27
2017-10-22T10:58:54.507Z,1003.23
2017-10-22T11:03:51.168Z,1003.30
2017-10-22T11:08:48.005Z,1003.27
2017-10-22T11:13:43.705Z,1003.31
2017-10-22T11:18:40.615Z,1003.21
2017-10-22T11:23:35.834Z,1003.30
2017-10-22T11:28:32.847Z,1003.30
2017-10-22T11:33:28.556Z,1003.30
2017-10-22T11:38:25.393Z,1003.39
2017-10-22T11:43:20.998Z,1003.36
2017-10-22T11:48:18.779Z,1003.42
2017-10-22T11:53:14.689Z,1003.42
2017-10-22T11:58:10.573Z,1003.48
2017-10-22T12:03:08.455Z,1003.45
2017-10-22T12:08:03.699Z,1003.50
2017-10-22T12:12:59.494Z,1003.55
2017-10-22T12:17:56.475Z,1003.56
2017-10-22T12:22:52.496Z,1003.39
2017-10-22T12:27:49.688Z,1003.49
2017-10-22T12:32:45.529Z,1003.53
2017-10-22T12:37:42.882Z,1003.41
2017-10-22T12:42:38.495Z,1003.61
2017-10-22T12:47:35.239Z,1003.55
2017-10-22T12:52:30.343Z,1003.60
2017-10-22T12:57:29.205Z,1003.62
2017-10-22T13:02:24.819Z,1003.58
2017-10-22T13:07:22.985Z,1003.57
2017-10-22T13:12:19.205Z,1003.61
2017-10-22T13:17:14.511Z,1003.56
2017-10-22T13:22:11.198Z,1003.69
2017-10-22T13:27:07.415Z,1003.67
2017-10-22T13:32:03.436Z,1003.82
2017-10-22T13:37:00.495Z,1003.77
2017-10-22T13:41:57.023Z,1003.81
2017-10-22T13:46:52.626Z,1003.89
2017-10-22T13:51:49.610Z,1003.96
2017-10-22T13:56:45.052Z,1003.93
2017-10-22T14:01:41.967Z,1003.92
2017-10-22T14:06:39.187Z,1003.98
2017-10-22T14:11:34.703Z,1003.98
2017-10-22T14:16:30.409Z,1004.05
2017-10-22T14:21:27.279Z,1004.13
2017-10-22T14:26:22.999Z,1004.21
2017-10-22T14:31:20.840Z,1004.14
2017-10-22T14:36:16.982Z,1004.27
2017-10-22T14:41:12.515Z,1004.30
2017-10-22T14:46:09.272Z,1004.47
2017-10-22T14:51:04.942Z,1004.39
2017-10-22T14:56:00.790Z,1004.43
2017-10-22T15:00:58.306Z,1004.51
2017-10-22T15:05:54.924Z,1004.56
2017-10-22T15:10:52.252Z,1004.70
2017-10-22T15:15:48.400Z,1004.68
2017-10-22T15:20:44.419Z,1004.71
2017-10-22T15:25:40.334Z,1004.80
2017-10-22T15:30:35.829Z,1004.82
2017-10-22T15:35:32.677Z,1004.86
2017-10-22T15:40:28.051Z,1004.95
2017-10-22T15:45:23.673Z,1004.99
2017-10-22T15:50:20.692Z,1005.00
2017-10-22T15:55:16.326Z,1004.97
2017-10-22T16:00:14.194Z,1004.97
2017-10-22T16:05:10.437Z,1005.17
2017-10-22T16:10:06.576Z,1005.18
2017-10-22T16:15:04.429Z,1005.22
2017-10-22T16:19:59.718Z,1005.25
2017-10-22T16:24:56.094Z,1005.34
2017-10-22T16:29:51.624Z,1005.45
2017-10-22T16:34:47.263Z,1005.43
2017-10-22T16:39:42.522Z,1005.47
2017-10-22T16:44:39.378Z,1005.57
2017-10-22T16:49:34.920Z,1005.53
2017-10-22T16:54:31.596Z,1005.59
2017-10-22T16:59:27.213Z,1005.55
2017-10-22T17:04:22.964Z,1005.71
2017-10-22T17:09:18.657Z,1005.77
2017-10-22T17:14:15.443Z,1005.84
2017-10-22T17:19:12.013Z,1005.90
2017-10-22T17:24:07.404Z,1005.92
2017-10-22T17:29:03.256Z,1005.87
2017-10-22T17:33:58.989Z,1006.02
2017-10-22T17:38:55.696Z,1005.96
2017-10-22T17:43:53.125Z,1006.00
2017-10-22T17:48:48.324Z,1006.10
2017-10-22T17:53:45.069Z,1006.15
2017-10-22T17:58:41.281Z,1006.07
2017-10-22T18:03:36.818Z,1006.13
2017-10-22T18:08:33.706Z,1006.27
2017-10-22T18:13:29.147Z,1006.29
2017-10-22T18:18:25.222Z,1006.35
2017-10-22T18:23:22.014Z,1006.44
2017-10-22T18:28:18.586Z,1006.44
2017-10-22T18:33:14.034Z,1006.47
2017-10-22T18:38:09.901Z,1006.54
2017-10-22T18:43:05.602Z,1006.44
2017-10-22T18:48:02.267Z,1006.56
2017-10-22T18:52:58.079Z,1006.53
2017-10-22T18:57:53.789Z,1006.58
2017-10-22T19:02:50.635Z,1006.54
2017-10-22T19:07:46.357Z,1006.50
2017-10-22T19:12:42.126Z,1006.56
2017-10-22T19:17:37.921Z,1006.56
2017-10-22T19:22:33.732Z,1006.56
2017-10-22T19:27:30.682Z,1006.68
2017-10-22T19:32:26.790Z,1006.72
2017-10-22T19:37:22.351Z,1006.67
2017-10-22T19:42:18.188Z,1006.70
2017-10-22T19:47:14.011Z,1006.71
2017-10-22T19:52:10.890Z,1006.69
2017-10-22T19:57:06.298Z,1006.84
2017-10-22T20:02:02.967Z,1006.77
2017-10-22T20:06:59.554Z,1006.82
2017-10-22T20:11:56.163Z,1006.90
2017-10-22T20:16:51.648Z,1006.80
2017-10-22T20:21:47.572Z,1006.93
2017-10-22T20:26:43.249Z,1006.98
2017-10-22T20:31:40.658Z,1006.95
2017-10-22T20:36:36.359Z,1007.02
2017-10-22T20:41:32.369Z,1007.10
2017-10-22T20:46:28.979Z,1007.15
2017-10-22T20:51:26.062Z,1007.28
2017-10-22T20:56:21.454Z,1007.28
2017-10-22T21:01:17.257Z,1007.17
2017-10-22T21:06:13.137Z,1007.26
2017-10-22T21:11:08.838Z,1007.21
2017-10-22T21:16:05.141Z,1007.20
2017-10-22T21:21:01.287Z,1007.27
2017-10-22T21:25:57.096Z,1007.37
2017-10-22T21:30:54.159Z,1007.35
2017-10-22T21:35:49.857Z,1007.35
2017-10-22T21:40:46.563Z,1007.30
2017-10-22T21:45:41.784Z,1007.34
2017-10-22T21:50:37.594Z,1007.44
2017-10-22T21:55:34.320Z,1007.38
2017-10-22T22:00:29.994Z,1007.36
2017-10-22T22:05:26.008Z,1007.35
2017-10-22T22:10:21.937Z,1007.32
2017-10-22T22:15:18.003Z,1007.40
2017-10-22T22:20:14.790Z,1007.32
2017-10-22T22:25:11.530Z,1007.29
2017-10-22T22:30:07.952Z,1007.28
2017-10-22T22:35:03.234Z,1007.40
2017-10-22T22:39:59.061Z,1007.46
2017-10-22T22:44:54.958Z,1007.41
2017-10-22T22:49:50.634Z,1007.41
2017-10-22T22:54:46.596Z,1007.32
2017-10-22T22:59:42.366Z,1007.31
2017-10-22T23:04:38.094Z,1007.23
2017-10-22T23:09:34.785Z,1007.24
2017-10-22T23:14:30.547Z,1007.24
2017-10-22T23:19:25.989Z,1007.32
2017-10-22T23:24:21.626Z,1007.28
2017-10-22T23:29:17.532Z,1007.27
2017-10-22T23:34:13.835Z,1007.37
2017-10-22T23:39:09.538Z,1007.26
2017-10-22T23:44:05.276Z,1007.21
2017-10-22T23:49:01.099Z,1007.37
2017-10-22T23:53:58.040Z,1007.39
2017-10-22T23:58:53.567Z,1007.36
